ADDS METAR Data INFO
IDs: Format: Raw Decoded Include TAF

Data at: 1740 UTC 15 Dec 2017

KMKT 151656Z AUTO 28003KT 7SM -SN OVC009 M01/M02 A2987 RMK AO2 UPB30E33SNE30B33 SLP132 P0000 T10061022 FZRANO
KMKT 151646Z AUTO 27004KT 9SM -SN OVC009 M01/M03 A2988 RMK AO2 UPB30E33SNE30B33 CIG 008V012 P0000 FZRANO
KMKT 151627Z AUTO 26003KT 9SM -SN OVC011 M01/M03 A2988 RMK AO2 P0000 FZRANO
KMKT 151610Z AUTO 26004KT 9SM -SN OVC009 M01/M02 A2988 RMK AO2 P0000 FZRANO
KMKT 151556Z AUTO 26003KT 9SM -SN OVC011 M02/M03 A2988 RMK AO2 UPB19E24SNB24 SLP135 P0000 T10171028 FZRANO
KMKT 151506Z AUTO 28003KT 10SM OVC011 M02/M03 A2989 RMK AO2 FZRANO
KMKT 151456Z AUTO 27003KT 10SM OVC009 M02/M03 A2989 RMK AO2 SLP137 60001 T10171028 55006 FZRANO
KMKT 151403Z AUTO 00000KT 10SM OVC009 M03/M03 A2988 RMK AO2 FZRANO
KMKT 151356Z AUTO 00000KT 10SM OVC011 M03/M03 A2988 RMK AO2 UPB43E55SNE39 SLP136 P0000 T10281033 FZRANO
KMKT 151256Z AUTO 26003KT 6SM -SN BR OVC011 M03/M04 A2990 RMK AO2 SLP142 P0001 T10281039 FZRANO
KMKT 151219Z AUTO 27004KT 3SM -SN BR OVC013 M03/M04 A2990 RMK AO2 P0000 FZRANO
KMKT 151207Z AUTO 27004KT 2 1/2SM -SN BR OVC013 M03/M04 A2990 RMK AO2 VIS 1 3/4V4 P0000 FZRANO
KMKT 151156Z AUTO 26005KT 3SM -SN BR OVC013 M03/M04 A2991 RMK AO2 SLP144 P0000 60000 T10281039 11028 21050 56016 FZRANO
KMKT 151110Z AUTO 26006KT 8SM -SN BKN011 BKN021 OVC026 M03/M04 A2991 RMK AO2 P0000 FZRANO
KMKT 151056Z AUTO 25007KT 9SM -SN FEW015 BKN023 OVC027 M03/M05 A2991 RMK AO2 SNB46 SLP145 P0000 T10331050 FZRANO
KMKT 150956Z AUTO 24006KT 10SM BKN023 OVC030 M04/M06 A2993 RMK AO2 SNB10E20 SLP154 P0000 T10391056 FZRANO
KMKT 150856Z AUTO 22006KT 9SM OVC026 M04/M06 A2996 RMK AO2 SNE10B28E55 SLP162 P0000 60000 T10441056 56020 FZRANO
KMKT 150833Z AUTO 23005KT 9SM -SN BKN026 OVC055 M05/M06 A2996 RMK AO2 SNE10B28 P0000 FZRANO
KMKT 150756Z AUTO 27005KT 10SM -SN FEW021 SCT028 OVC047 M04/M06 A2997 RMK AO2 SLP167 P0000 T10441061 FZRANO
KMKT 150656Z AUTO 27004KT 9SM -SN SCT021 OVC038 M04/M06 A3000 RMK AO2 SLP176 P0000 T10441061 FZRANO TSNO
KMKT 150612Z AUTO 30008KT 9SM -SN SCT024 SCT037 OVC046 M04/M07 A3001 RMK AO2 P0000 FZRANO
KMKT 150556Z AUTO 29010KT 9SM -SN BKN024 OVC035 M04/M07 A3002 RMK AO2 SLP183 P0000 60000 T10441067 11039 21044 410391122 57008 FZRANO
KMKT 150517Z AUTO 29010KT 9SM -SN BKN026 BKN033 OVC041 M04/M07 A3002 RMK AO2 P0000 FZRANO
KMKT 150456Z AUTO 29012KT 9SM -SN SCT028 OVC042 M04/M07 A3002 RMK AO2 SLP184 P0000 T10441067 FZRANO
KMKT 150406Z AUTO 29010KT 9SM -SN SCT022 OVC048 M04/M07 A3003 RMK AO2 P0000 FZRANO
KMKT 150356Z AUTO 30009KT 10SM -SN BKN022 OVC048 M04/M07 A3004 RMK AO2 SNB53 SLP191 P0000 T10441072 FZRANO
KMKT 150256Z AUTO 30008KT 10SM OVC022 M04/M08 A3004 RMK AO2 SNE10 SLP192 P0000 60000 T10441078 58003 FZRANO
KMKT 150156Z AUTO 31015G22KT 9SM -SN OVC018 M04/M08 A3005 RMK AO2 SNB30 SLP197 P0000 T10441078 FZRANO
KMKT 150056Z AUTO 31013KT 10SM OVC022 M04/M07 A3005 RMK AO2 SLP196 T10391072 FZRANO
KMKT 150005Z AUTO 30007KT 10SM BKN026 OVC032 M04/M07 A3005 RMK AO2 FZRANO
KMKT 142356Z AUTO 30008KT 10SM OVC032 M04/M07 A3005 RMK AO2 SNE27 SLP197 P0000 60000 T10441072 11044 21061 53005 FZRANO
KMKT 142256Z AUTO 30007KT 9SM -SN OVC036 M04/M08 A3004 RMK AO2 SNB51 SLP195 P0000 T10441078 FZRANO
KMKT 142156Z AUTO 30008KT 10SM SCT014 BKN041 OVC090 M04/M07 A3003 RMK AO2 SLP190 T10441072 FZRANO
KMKT 142056Z AUTO 30011KT 10SM OVC012 M05/M08 A3003 RMK AO2 SNE32 SLP191 P0000 60000 T10501078 56005 FZRANO TSNO
KMKT 141956Z AUTO 30009KT 9SM -SN OVC010 M06/M08 A3003 RMK AO2 SNB1858 SLP191 P0000 T10561078 FZRANO
KMKT 141856Z AUTO 29008KT 10SM OVC010 M06/M08 A3004 RMK AO2 SNB13E34 SLP195 P0000 T10611078 FZRANO
KMKT 141756Z AUTO 00000KT 9SM OVC014 M06/M08 A3005 RMK AO2 SNB46E56 SLP196 P0000 60000 T10611083 11061 21122 56003 FZRANO
KMKT 141751Z AUTO 25005KT 9SM -SN OVC014 M06/M08 A3005 RMK AO2 SNB46 P0000 FZRANO
KMKT 141656Z AUTO 21004KT 10SM OVC016 M07/M09 A3005 RMK AO2 SNB10E39 SLP198 P0000 T10671089 FZRANO
KMKT 141556Z AUTO 20005KT 9SM OVC016 M08/M09 A3006 RMK AO2 SNB45E56 SLP199 P0000 T10781094 FZRANO
KMKT 141456Z AUTO 14003KT 10SM OVC016 M08/M10 A3005 RMK AO2 SLP198 T10831100 53009 FZRANO
KMKT 141356Z AUTO 24004KT 10SM OVC022 M09/M11 A3004 RMK AO2 SLP193 T10941106 FZRANO
KMKT 141256Z AUTO 00000KT 10SM OVC024 M11/M12 A3003 RMK AO2 SLP190 T11061122 FZRANO
KMKT 141237Z AUTO 13003KT 10SM BKN026 M11/M13 A3003 RMK AO2 FZRANO
KMKT 141156Z AUTO 00000KT 10SM CLR M12/M13 A3003 RMK AO2 SLP189 T11171128 11083 21122 53004 FZRANO
KMKT 141056Z AUTO 00000KT 10SM CLR M12/M13 A3001 RMK AO2 SLP183 T11171133 FZRANO
KMKT 140956Z AUTO 35004KT 10SM CLR M11/M13 A3001 RMK AO2 SLP182 T11111128 FZRANO
KMKT 140856Z AUTO 30005KT 10SM CLR M11/M12 A3001 RMK AO2 SLP183 T11061117 53008 FZRANO
KMKT 140756Z AUTO 31004KT 10SM CLR M09/M11 A3000 RMK AO2 SLP180 T10941111 FZRANO
KMKT 140656Z AUTO 31004KT 10SM CLR M09/M11 A2999 RMK AO2 SLP175 T10941106 FZRANO
KMKT 140556Z AUTO 31006KT 10SM CLR M08/M11 A2999 RMK AO2 SLP173 60000 T10831106 11039 21083 400391083 53026 FZRANO